sensor_id;sensor_type;location;lat;lon;timestamp;P1;durP1;ratioP1;P2;durP2;ratioP2
79712;SDS011;69206;51.420;5.400;2023-06-19T00:02:14;8.88;;;7.35;;
79712;SDS011;69206;51.420;5.400;2023-06-19T00:04:39;11.38;;;6.82;;
79712;SDS011;69206;51.420;5.400;2023-06-19T00:07:04;10.98;;;7.65;;
79712;SDS011;69206;51.420;5.400;2023-06-19T00:09:30;13.02;;;7.38;;
79712;SDS011;69206;51.420;5.400;2023-06-19T00:11:55;9.93;;;7.38;;
79712;SDS011;69206;51.420;5.400;2023-06-19T00:14:21;11.63;;;8.00;;
79712;SDS011;69206;51.420;5.400;2023-06-19T00:16:46;12.40;;;8.00;;
79712;SDS011;69206;51.420;5.400;2023-06-19T00:19:12;11.57;;;7.38;;
79712;SDS011;69206;51.420;5.400;2023-06-19T00:21:37;12.38;;;7.90;;
79712;SDS011;69206;51.420;5.400;2023-06-19T00:24:04;12.30;;;7.38;;
79712;SDS011;69206;51.420;5.400;2023-06-19T00:26:30;9.88;;;7.35;;
79712;SDS011;69206;51.420;5.400;2023-06-19T00:28:56;10.82;;;7.43;;
79712;SDS011;69206;51.420;5.400;2023-06-19T00:31:21;10.43;;;7.65;;
79712;SDS011;69206;51.420;5.400;2023-06-19T00:33:47;10.95;;;8.05;;
79712;SDS011;69206;51.420;5.400;2023-06-19T00:36:13;11.02;;;7.78;;
79712;SDS011;69206;51.420;5.400;2023-06-19T00:38:40;11.07;;;8.13;;
79712;SDS011;69206;51.420;5.400;2023-06-19T00:41:07;13.00;;;7.97;;
79712;SDS011;69206;51.420;5.400;2023-06-19T00:43:33;12.43;;;7.97;;
79712;SDS011;69206;51.420;5.400;2023-06-19T00:45:59;11.30;;;7.60;;
79712;SDS011;69206;51.420;5.400;2023-06-19T00:48:26;10.63;;;7.22;;
79712;SDS011;69206;51.420;5.400;2023-06-19T00:50:53;12.82;;;7.43;;
79712;SDS011;69206;51.420;5.400;2023-06-19T00:53:19;9.65;;;7.15;;
79712;SDS011;69206;51.420;5.400;2023-06-19T00:55:45;9.98;;;6.95;;
79712;SDS011;69206;51.420;5.400;2023-06-19T00:58:12;12.10;;;7.03;;
79712;SDS011;69206;51.420;5.400;2023-06-19T01:00:38;8.98;;;6.47;;
79712;SDS011;69206;51.420;5.400;2023-06-19T01:03:03;10.45;;;7.28;;
79712;SDS011;69206;51.420;5.400;2023-06-19T01:05:29;9.38;;;6.40;;
79712;SDS011;69206;51.420;5.400;2023-06-19T01:10:38;9.40;;;6.50;;
79712;SDS011;69206;51.420;5.400;2023-06-19T01:13:09;8.55;;;6.35;;
79712;SDS011;69206;51.420;5.400;2023-06-19T01:15:39;7.80;;;5.53;;
79712;SDS011;69206;51.420;5.400;2023-06-19T01:18:06;10.45;;;5.38;;
79712;SDS011;69206;51.420;5.400;2023-06-19T01:20:32;23.10;;;6.13;;
79712;SDS011;69206;51.420;5.400;2023-06-19T01:23:04;9.88;;;5.30;;
79712;SDS011;69206;51.420;5.400;2023-06-19T01:25:33;7.00;;;5.07;;
79712;SDS011;69206;51.420;5.400;2023-06-19T01:27:58;7.00;;;4.88;;
79712;SDS011;69206;51.420;5.400;2023-06-19T01:30:24;9.18;;;4.72;;
79712;SDS011;69206;51.420;5.400;2023-06-19T01:32:51;5.60;;;4.07;;
79712;SDS011;69206;51.420;5.400;2023-06-19T01:35:23;6.97;;;4.65;;
79712;SDS011;69206;51.420;5.400;2023-06-19T01:37:52;7.82;;;3.92;;
79712;SDS011;69206;51.420;5.400;2023-06-19T01:40:18;6.45;;;4.05;;
79712;SDS011;69206;51.420;5.400;2023-06-19T01:42:49;8.57;;;4.38;;
79712;SDS011;69206;51.420;5.400;2023-06-19T01:45:16;8.32;;;4.25;;
79712;SDS011;69206;51.420;5.400;2023-06-19T01:47:42;11.10;;;4.03;;
79712;SDS011;69206;51.420;5.400;2023-06-19T01:50:07;5.90;;;4.03;;
79712;SDS011;69206;51.420;5.400;2023-06-19T01:52:34;6.32;;;3.50;;
79712;SDS011;69206;51.420;5.400;2023-06-19T01:54:59;6.97;;;3.50;;
79712;SDS011;69206;51.420;5.400;2023-06-19T01:57:25;7.07;;;3.83;;
79712;SDS011;69206;51.420;5.400;2023-06-19T01:59:51;9.00;;;4.18;;
79712;SDS011;69206;51.420;5.400;2023-06-19T02:02:16;5.50;;;3.13;;
79712;SDS011;69206;51.420;5.400;2023-06-19T02:04:41;7.32;;;3.90;;
79712;SDS011;69206;51.420;5.400;2023-06-19T02:07:07;5.88;;;3.63;;
79712;SDS011;69206;51.420;5.400;2023-06-19T02:09:33;5.40;;;3.22;;
79712;SDS011;69206;51.420;5.400;2023-06-19T02:11:58;5.05;;;3.13;;
79712;SDS011;69206;51.420;5.400;2023-06-19T02:14:23;5.55;;;3.35;;
79712;SDS011;69206;51.420;5.400;2023-06-19T02:16:49;4.60;;;2.80;;
79712;SDS011;69206;51.420;5.400;2023-06-19T02:19:15;3.67;;;2.58;;
79712;SDS011;69206;51.420;5.400;2023-06-19T02:21:40;3.78;;;2.70;;
79712;SDS011;69206;51.420;5.400;2023-06-19T02:24:05;7.00;;;2.67;;
79712;SDS011;69206;51.420;5.400;2023-06-19T02:26:31;5.47;;;3.05;;
79712;SDS011;69206;51.420;5.400;2023-06-19T02:28:57;8.55;;;2.90;;
79712;SDS011;69206;51.420;5.400;2023-06-19T02:31:23;4.78;;;2.85;;
79712;SDS011;69206;51.420;5.400;2023-06-19T02:33:48;5.00;;;3.13;;
79712;SDS011;69206;51.420;5.400;2023-06-19T02:36:14;5.32;;;2.90;;
79712;SDS011;69206;51.420;5.400;2023-06-19T02:38:47;3.85;;;2.80;;
79712;SDS011;69206;51.420;5.400;2023-06-19T02:41:13;4.85;;;2.92;;
79712;SDS011;69206;51.420;5.400;2023-06-19T02:43:39;6.25;;;3.10;;
79712;SDS011;69206;51.420;5.400;2023-06-19T02:46:06;7.10;;;2.78;;
79712;SDS011;69206;51.420;5.400;2023-06-19T02:48:31;5.80;;;3.20;;
79712;SDS011;69206;51.420;5.400;2023-06-19T02:50:56;5.40;;;3.28;;
79712;SDS011;69206;51.420;5.400;2023-06-19T02:53:22;3.95;;;2.92;;
79712;SDS011;69206;51.420;5.400;2023-06-19T02:55:47;3.88;;;3.10;;
79712;SDS011;69206;51.420;5.400;2023-06-19T02:58:12;5.55;;;3.58;;
79712;SDS011;69206;51.420;5.400;2023-06-19T03:00:38;6.32;;;2.83;;
79712;SDS011;69206;51.420;5.400;2023-06-19T03:03:03;4.93;;;3.17;;
79712;SDS011;69206;51.420;5.400;2023-06-19T03:05:28;7.88;;;3.40;;
79712;SDS011;69206;51.420;5.400;2023-06-19T03:07:54;5.45;;;3.70;;
79712;SDS011;69206;51.420;5.400;2023-06-19T03:10:19;5.93;;;3.47;;
79712;SDS011;69206;51.420;5.400;2023-06-19T03:12:45;4.25;;;2.88;;
79712;SDS011;69206;51.420;5.400;2023-06-19T03:15:10;4.18;;;3.30;;
79712;SDS011;69206;51.420;5.400;2023-06-19T03:17:36;5.90;;;3.88;;
79712;SDS011;69206;51.420;5.400;2023-06-19T03:20:01;6.43;;;3.53;;
79712;SDS011;69206;51.420;5.400;2023-06-19T03:22:27;5.50;;;3.53;;
79712;SDS011;69206;51.420;5.400;2023-06-19T03:24:52;5.65;;;3.25;;
79712;SDS011;69206;51.420;5.400;2023-06-19T03:27:18;7.43;;;3.53;;
79712;SDS011;69206;51.420;5.400;2023-06-19T03:29:43;5.13;;;3.50;;
79712;SDS011;69206;51.420;5.400;2023-06-19T03:32:09;7.35;;;3.65;;
79712;SDS011;69206;51.420;5.400;2023-06-19T03:34:34;6.25;;;3.35;;
79712;SDS011;69206;51.420;5.400;2023-06-19T03:37:00;7.88;;;3.30;;
79712;SDS011;69206;51.420;5.400;2023-06-19T03:39:25;8.63;;;3.80;;
79712;SDS011;69206;51.420;5.400;2023-06-19T03:41:51;6.05;;;3.60;;
79712;SDS011;69206;51.420;5.400;2023-06-19T03:44:16;6.57;;;3.72;;
79712;SDS011;69206;51.420;5.400;2023-06-19T03:46:41;5.47;;;3.72;;
79712;SDS011;69206;51.420;5.400;2023-06-19T03:49:07;5.22;;;3.55;;
79712;SDS011;69206;51.420;5.400;2023-06-19T03:51:34;5.15;;;3.53;;
79712;SDS011;69206;51.420;5.400;2023-06-19T03:54:00;6.35;;;4.07;;
79712;SDS011;69206;51.420;5.400;2023-06-19T03:56:25;6.43;;;3.80;;
79712;SDS011;69206;51.420;5.400;2023-06-19T03:58:51;4.50;;;3.65;;
79712;SDS011;69206;51.420;5.400;2023-06-19T04:01:16;5.68;;;3.78;;
79712;SDS011;69206;51.420;5.400;2023-06-19T04:03:41;7.03;;;3.83;;
79712;SDS011;69206;51.420;5.400;2023-06-19T04:06:07;12.65;;;3.92;;
79712;SDS011;69206;51.420;5.400;2023-06-19T04:08:33;6.07;;;3.88;;
79712;SDS011;69206;51.420;5.400;2023-06-19T04:10:58;8.27;;;3.85;;
79712;SDS011;69206;51.420;5.400;2023-06-19T04:13:24;6.07;;;3.83;;
79712;SDS011;69206;51.420;5.400;2023-06-19T04:15:51;7.30;;;4.20;;
79712;SDS011;69206;51.420;5.400;2023-06-19T04:18:16;10.15;;;4.10;;
79712;SDS011;69206;51.420;5.400;2023-06-19T04:20:42;6.47;;;3.95;;
79712;SDS011;69206;51.420;5.400;2023-06-19T04:23:07;6.63;;;4.40;;
79712;SDS011;69206;51.420;5.400;2023-06-19T04:25:33;6.30;;;3.95;;
79712;SDS011;69206;51.420;5.400;2023-06-19T04:27:58;6.90;;;3.70;;
79712;SDS011;69206;51.420;5.400;2023-06-19T04:30:24;5.78;;;3.33;;
79712;SDS011;69206;51.420;5.400;2023-06-19T04:32:49;6.72;;;4.00;;
79712;SDS011;69206;51.420;5.400;2023-06-19T04:35:15;5.43;;;3.45;;
79712;SDS011;69206;51.420;5.400;2023-06-19T04:37:43;5.07;;;3.90;;
79712;SDS011;69206;51.420;5.400;2023-06-19T04:40:08;10.73;;;4.18;;
79712;SDS011;69206;51.420;5.400;2023-06-19T04:42:34;9.93;;;4.43;;
79712;SDS011;69206;51.420;5.400;2023-06-19T04:45:00;8.80;;;4.40;;
79712;SDS011;69206;51.420;5.400;2023-06-19T04:47:25;6.25;;;3.67;;
79712;SDS011;69206;51.420;5.400;2023-06-19T04:49:50;6.25;;;3.95;;
79712;SDS011;69206;51.420;5.400;2023-06-19T04:52:16;8.82;;;4.38;;
79712;SDS011;69206;51.420;5.400;2023-06-19T04:54:41;8.18;;;4.07;;
79712;SDS011;69206;51.420;5.400;2023-06-19T04:57:07;8.82;;;4.13;;
79712;SDS011;69206;51.420;5.400;2023-06-19T04:59:32;6.47;;;4.10;;
79712;SDS011;69206;51.420;5.400;2023-06-19T05:01:58;6.00;;;3.90;;
79712;SDS011;69206;51.420;5.400;2023-06-19T05:04:24;6.30;;;4.45;;
79712;SDS011;69206;51.420;5.400;2023-06-19T05:06:49;10.32;;;4.03;;
79712;SDS011;69206;51.420;5.400;2023-06-19T05:09:18;6.03;;;4.45;;
79712;SDS011;69206;51.420;5.400;2023-06-19T05:15:06;6.68;;;4.13;;
79712;SDS011;69206;51.420;5.400;2023-06-19T05:17:32;6.55;;;3.78;;
79712;SDS011;69206;51.420;5.400;2023-06-19T05:19:58;10.93;;;4.35;;
79712;SDS011;69206;51.420;5.400;2023-06-19T05:22:25;10.60;;;4.57;;
79712;SDS011;69206;51.420;5.400;2023-06-19T05:24:53;11.15;;;4.68;;
79712;SDS011;69206;51.420;5.400;2023-06-19T05:27:19;5.80;;;3.90;;
79712;SDS011;69206;51.420;5.400;2023-06-19T05:29:46;6.93;;;4.28;;
79712;SDS011;69206;51.420;5.400;2023-06-19T05:32:12;7.32;;;4.53;;
79712;SDS011;69206;51.420;5.400;2023-06-19T05:34:39;8.00;;;4.60;;
79712;SDS011;69206;51.420;5.400;2023-06-19T05:37:04;6.32;;;4.25;;
79712;SDS011;69206;51.420;5.400;2023-06-19T05:39:30;8.93;;;4.03;;
79712;SDS011;69206;51.420;5.400;2023-06-19T05:41:57;9.73;;;4.97;;
79712;SDS011;69206;51.420;5.400;2023-06-19T05:44:23;10.05;;;4.50;;
79712;SDS011;69206;51.420;5.400;2023-06-19T05:46:49;14.15;;;4.45;;
79712;SDS011;69206;51.420;5.400;2023-06-19T05:49:16;5.88;;;4.63;;
79712;SDS011;69206;51.420;5.400;2023-06-19T05:51:42;7.60;;;4.85;;
79712;SDS011;69206;51.420;5.400;2023-06-19T05:54:08;7.68;;;5.07;;
79712;SDS011;69206;51.420;5.400;2023-06-19T05:56:34;7.93;;;5.32;;
79712;SDS011;69206;51.420;5.400;2023-06-19T05:59:01;9.10;;;5.35;;
79712;SDS011;69206;51.420;5.400;2023-06-19T06:01:27;10.60;;;5.32;;
79712;SDS011;69206;51.420;5.400;2023-06-19T06:03:56;8.05;;;5.20;;
79712;SDS011;69206;51.420;5.400;2023-06-19T06:06:22;8.60;;;5.38;;
79712;SDS011;69206;51.420;5.400;2023-06-19T06:08:48;12.82;;;5.97;;
79712;SDS011;69206;51.420;5.400;2023-06-19T06:11:15;19.15;;;5.25;;
79712;SDS011;69206;51.420;5.400;2023-06-19T06:13:40;11.55;;;5.85;;
79712;SDS011;69206;51.420;5.400;2023-06-19T06:16:06;10.00;;;6.30;;
79712;SDS011;69206;51.420;5.400;2023-06-19T06:18:32;9.70;;;5.75;;
79712;SDS011;69206;51.420;5.400;2023-06-19T06:20:57;7.60;;;5.45;;
79712;SDS011;69206;51.420;5.400;2023-06-19T06:23:25;9.55;;;5.80;;
79712;SDS011;69206;51.420;5.400;2023-06-19T06:25:50;11.32;;;6.45;;
79712;SDS011;69206;51.420;5.400;2023-06-19T06:28:16;7.78;;;5.13;;
79712;SDS011;69206;51.420;5.400;2023-06-19T06:30:43;9.25;;;6.30;;
79712;SDS011;69206;51.420;5.400;2023-06-19T06:33:09;12.52;;;6.30;;
79712;SDS011;69206;51.420;5.400;2023-06-19T06:35:34;11.43;;;6.93;;
79712;SDS011;69206;51.420;5.400;2023-06-19T06:38:01;12.95;;;6.25;;
79712;SDS011;69206;51.420;5.400;2023-06-19T06:40:27;11.73;;;7.13;;
79712;SDS011;69206;51.420;5.400;2023-06-19T06:42:53;9.55;;;6.72;;
79712;SDS011;69206;51.420;5.400;2023-06-19T06:45:18;12.98;;;7.13;;
79712;SDS011;69206;51.420;5.400;2023-06-19T06:47:44;11.98;;;7.78;;
79712;SDS011;69206;51.420;5.400;2023-06-19T06:50:09;10.05;;;7.47;;
79712;SDS011;69206;51.420;5.400;2023-06-19T06:52:35;10.20;;;7.57;;
79712;SDS011;69206;51.420;5.400;2023-06-19T06:55:04;15.18;;;7.65;;
79712;SDS011;69206;51.420;5.400;2023-06-19T06:57:30;10.15;;;7.43;;
79712;SDS011;69206;51.420;5.400;2023-06-19T06:59:55;11.85;;;7.88;;
79712;SDS011;69206;51.420;5.400;2023-06-19T07:02:21;11.30;;;7.57;;
79712;SDS011;69206;51.420;5.400;2023-06-19T07:04:46;11.63;;;7.57;;
79712;SDS011;69206;51.420;5.400;2023-06-19T07:07:11;12.27;;;7.07;;
79712;SDS011;69206;51.420;5.400;2023-06-19T07:09:37;12.35;;;7.28;;
79712;SDS011;69206;51.420;5.400;2023-06-19T07:12:02;9.05;;;6.10;;
79712;SDS011;69206;51.420;5.400;2023-06-19T07:14:30;10.82;;;7.13;;
79712;SDS011;69206;51.420;5.400;2023-06-19T07:16:56;10.27;;;7.25;;
79712;SDS011;69206;51.420;5.400;2023-06-19T07:19:22;7.97;;;6.22;;
79712;SDS011;69206;51.420;5.400;2023-06-19T07:21:51;12.95;;;6.82;;
79712;SDS011;69206;51.420;5.400;2023-06-19T07:24:17;14.35;;;7.30;;
79712;SDS011;69206;51.420;5.400;2023-06-19T07:26:43;11.98;;;7.78;;
79712;SDS011;69206;51.420;5.400;2023-06-19T07:29:08;12.95;;;6.82;;
79712;SDS011;69206;51.420;5.400;2023-06-19T07:31:33;13.02;;;6.85;;
79712;SDS011;69206;51.420;5.400;2023-06-19T07:33:59;9.35;;;6.85;;
79712;SDS011;69206;51.420;5.400;2023-06-19T07:36:24;11.05;;;6.63;;
79712;SDS011;69206;51.420;5.400;2023-06-19T07:38:51;9.20;;;6.45;;
79712;SDS011;69206;51.420;5.400;2023-06-19T07:41:16;9.93;;;6.55;;
79712;SDS011;69206;51.420;5.400;2023-06-19T07:43:42;9.15;;;6.47;;
79712;SDS011;69206;51.420;5.400;2023-06-19T07:46:07;14.55;;;7.03;;
79712;SDS011;69206;51.420;5.400;2023-06-19T07:48:33;16.70;;;6.28;;
79712;SDS011;69206;51.420;5.400;2023-06-19T07:50:59;11.85;;;6.38;;
79712;SDS011;69206;51.420;5.400;2023-06-19T07:53:24;8.43;;;5.90;;
79712;SDS011;69206;51.420;5.400;2023-06-19T07:55:50;9.00;;;6.68;;
79712;SDS011;69206;51.420;5.400;2023-06-19T07:58:15;13.02;;;6.65;;
79712;SDS011;69206;51.420;5.400;2023-06-19T08:00:40;10.85;;;6.75;;
79712;SDS011;69206;51.420;5.400;2023-06-19T08:03:06;10.75;;;6.25;;
79712;SDS011;69206;51.420;5.400;2023-06-19T08:05:31;11.27;;;6.70;;
79712;SDS011;69206;51.420;5.400;2023-06-19T08:08:00;12.18;;;6.63;;
79712;SDS011;69206;51.420;5.400;2023-06-19T08:10:26;9.60;;;6.93;;
79712;SDS011;69206;51.420;5.400;2023-06-19T08:12:52;10.18;;;6.50;;
79712;SDS011;69206;51.420;5.400;2023-06-19T08:15:17;9.40;;;6.13;;
79712;SDS011;69206;51.420;5.400;2023-06-19T08:17:42;12.18;;;7.07;;
79712;SDS011;69206;51.420;5.400;2023-06-19T08:20:08;10.70;;;6.97;;
79712;SDS011;69206;51.420;5.400;2023-06-19T08:22:35;15.18;;;7.07;;
79712;SDS011;69206;51.420;5.400;2023-06-19T08:25:01;10.35;;;7.35;;
79712;SDS011;69206;51.420;5.400;2023-06-19T08:27:27;11.70;;;7.07;;
79712;SDS011;69206;51.420;5.400;2023-06-19T08:29:52;9.93;;;7.13;;
79712;SDS011;69206;51.420;5.400;2023-06-19T08:32:18;9.18;;;7.35;;
79712;SDS011;69206;51.420;5.400;2023-06-19T08:34:44;13.55;;;6.90;;
79712;SDS011;69206;51.420;5.400;2023-06-19T08:37:09;12.98;;;6.60;;
79712;SDS011;69206;51.420;5.400;2023-06-19T08:39:35;13.13;;;7.78;;
79712;SDS011;69206;51.420;5.400;2023-06-19T08:42:07;10.43;;;7.25;;
79712;SDS011;69206;51.420;5.400;2023-06-19T08:44:36;12.13;;;7.38;;
79712;SDS011;69206;51.420;5.400;2023-06-19T08:47:02;10.75;;;8.25;;
79712;SDS011;69206;51.420;5.400;2023-06-19T08:49:34;18.35;;;7.28;;
79712;SDS011;69206;51.420;5.400;2023-06-19T08:52:02;10.95;;;7.18;;
79712;SDS011;69206;51.420;5.400;2023-06-19T08:54:31;8.25;;;6.78;;
79712;SDS011;69206;51.420;5.400;2023-06-19T08:56:59;15.77;;;7.65;;
79712;SDS011;69206;51.420;5.400;2023-06-19T08:59:26;13.77;;;7.82;;
79712;SDS011;69206;51.420;5.400;2023-06-19T09:01:54;14.15;;;7.15;;
79712;SDS011;69206;51.420;5.400;2023-06-19T09:04:21;12.43;;;6.97;;
79712;SDS011;69206;51.420;5.400;2023-06-19T09:06:52;11.38;;;7.00;;
79712;SDS011;69206;51.420;5.400;2023-06-19T09:09:19;13.82;;;6.85;;
79712;SDS011;69206;51.420;5.400;2023-06-19T09:12:05;11.35;;;7.18;;
79712;SDS011;69206;51.420;5.400;2023-06-19T09:14:33;11.02;;;7.00;;
79712;SDS011;69206;51.420;5.400;2023-06-19T09:17:05;10.63;;;6.80;;
79712;SDS011;69206;51.420;5.400;2023-06-19T09:19:32;11.88;;;5.85;;
79712;SDS011;69206;51.420;5.400;2023-06-19T09:22:02;13.82;;;6.30;;
79712;SDS011;69206;51.420;5.400;2023-06-19T09:24:40;13.15;;;6.30;;
79712;SDS011;69206;51.420;5.400;2023-06-19T09:27:10;9.98;;;6.50;;
79712;SDS011;69206;51.420;5.400;2023-06-19T09:29:43;11.60;;;6.63;;
79712;SDS011;69206;51.420;5.400;2023-06-19T09:32:15;12.25;;;7.22;;
79712;SDS011;69206;51.420;5.400;2023-06-19T09:34:52;12.07;;;6.93;;
79712;SDS011;69206;51.420;5.400;2023-06-19T09:37:21;9.93;;;6.38;;
79712;SDS011;69206;51.420;5.400;2023-06-19T09:39:50;9.45;;;5.93;;
79712;SDS011;69206;51.420;5.400;2023-06-19T09:42:18;9.48;;;7.10;;
79712;SDS011;69206;51.420;5.400;2023-06-19T09:44:49;13.00;;;6.82;;
79712;SDS011;69206;51.420;5.400;2023-06-19T09:47:21;10.05;;;6.97;;
79712;SDS011;69206;51.420;5.400;2023-06-19T09:49:50;19.58;;;8.15;;
79712;SDS011;69206;51.420;5.400;2023-06-19T09:52:20;13.05;;;6.38;;
79712;SDS011;69206;51.420;5.400;2023-06-19T09:54:49;9.60;;;6.75;;
79712;SDS011;69206;51.420;5.400;2023-06-19T09:57:15;12.10;;;7.05;;
79712;SDS011;69206;51.420;5.400;2023-06-19T09:59:41;9.77;;;6.63;;
79712;SDS011;69206;51.420;5.400;2023-06-19T10:02:08;9.73;;;6.82;;
79712;SDS011;69206;51.420;5.400;2023-06-19T10:04:41;16.73;;;6.45;;
79712;SDS011;69206;51.420;5.400;2023-06-19T10:07:20;10.18;;;5.82;;
79712;SDS011;69206;51.420;5.400;2023-06-19T10:10:02;15.10;;;6.60;;
79712;SDS011;69206;51.420;5.400;2023-06-19T10:12:40;16.70;;;7.43;;
79712;SDS011;69206;51.420;5.400;2023-06-19T10:15:09;14.40;;;7.03;;
79712;SDS011;69206;51.420;5.400;2023-06-19T10:17:37;11.73;;;7.20;;
79712;SDS011;69206;51.420;5.400;2023-06-19T10:20:03;11.57;;;6.60;;
79712;SDS011;69206;51.420;5.400;2023-06-19T10:22:32;14.30;;;8.27;;
79712;SDS011;69206;51.420;5.400;2023-06-19T10:24:57;11.23;;;7.38;;
79712;SDS011;69206;51.420;5.400;2023-06-19T10:27:24;11.80;;;7.07;;
79712;SDS011;69206;51.420;5.400;2023-06-19T10:29:53;11.35;;;7.30;;
79712;SDS011;69206;51.420;5.400;2023-06-19T10:32:20;12.98;;;7.93;;
79712;SDS011;69206;51.420;5.400;2023-06-19T10:34:46;14.02;;;7.88;;
79712;SDS011;69206;51.420;5.400;2023-06-19T10:37:14;13.27;;;7.40;;
79712;SDS011;69206;51.420;5.400;2023-06-19T10:39:41;14.48;;;8.73;;
79712;SDS011;69206;51.420;5.400;2023-06-19T10:42:09;11.18;;;8.10;;
79712;SDS011;69206;51.420;5.400;2023-06-19T10:44:37;12.80;;;8.10;;
79712;SDS011;69206;51.420;5.400;2023-06-19T10:47:04;13.35;;;8.43;;
79712;SDS011;69206;51.420;5.400;2023-06-19T10:49:30;15.50;;;8.77;;
79712;SDS011;69206;51.420;5.400;2023-06-19T10:51:55;10.20;;;7.47;;
79712;SDS011;69206;51.420;5.400;2023-06-19T10:54:24;14.75;;;7.35;;
79712;SDS011;69206;51.420;5.400;2023-06-19T10:56:51;11.35;;;7.47;;
79712;SDS011;69206;51.420;5.400;2023-06-19T10:59:16;14.65;;;8.70;;
79712;SDS011;69206;51.420;5.400;2023-06-19T11:01:44;11.60;;;7.47;;
79712;SDS011;69206;51.420;5.400;2023-06-19T11:04:11;10.95;;;7.25;;
79712;SDS011;69206;51.420;5.400;2023-06-19T11:06:38;15.98;;;8.13;;
79712;SDS011;69206;51.420;5.400;2023-06-19T11:09:08;11.20;;;7.57;;
79712;SDS011;69206;51.420;5.400;2023-06-19T11:11:56;13.85;;;8.20;;
79712;SDS011;69206;51.420;5.400;2023-06-19T11:14:20;11.63;;;7.53;;
79712;SDS011;69206;51.420;5.400;2023-06-19T11:16:46;20.00;;;9.13;;
79712;SDS011;69206;51.420;5.400;2023-06-19T11:19:16;14.05;;;8.18;;
79712;SDS011;69206;51.420;5.400;2023-06-19T11:21:51;13.98;;;7.63;;
79712;SDS011;69206;51.420;5.400;2023-06-19T11:24:17;14.40;;;8.23;;
79712;SDS011;69206;51.420;5.400;2023-06-19T11:26:45;11.70;;;8.45;;
79712;SDS011;69206;51.420;5.400;2023-06-19T11:29:21;13.23;;;7.72;;
79712;SDS011;69206;51.420;5.400;2023-06-19T11:31:50;16.08;;;8.25;;
79712;SDS011;69206;51.420;5.400;2023-06-19T11:34:18;13.70;;;7.38;;
79712;SDS011;69206;51.420;5.400;2023-06-19T11:36:44;25.42;;;7.40;;
79712;SDS011;69206;51.420;5.400;2023-06-19T11:39:14;18.63;;;9.05;;
79712;SDS011;69206;51.420;5.400;2023-06-19T11:41:44;12.90;;;8.20;;
79712;SDS011;69206;51.420;5.400;2023-06-19T11:44:09;11.00;;;7.18;;
79712;SDS011;69206;51.420;5.400;2023-06-19T11:46:35;8.98;;;6.53;;
79712;SDS011;69206;51.420;5.400;2023-06-19T11:49:15;12.85;;;7.53;;
79712;SDS011;69206;51.420;5.400;2023-06-19T11:51:45;11.30;;;7.60;;
79712;SDS011;69206;51.420;5.400;2023-06-19T11:54:11;11.13;;;6.57;;
79712;SDS011;69206;51.420;5.400;2023-06-19T11:56:37;14.50;;;7.90;;
79712;SDS011;69206;51.420;5.400;2023-06-19T11:59:04;16.38;;;8.88;;
79712;SDS011;69206;51.420;5.400;2023-06-19T12:01:33;15.60;;;8.63;;
79712;SDS011;69206;51.420;5.400;2023-06-19T12:04:01;13.10;;;7.72;;
79712;SDS011;69206;51.420;5.400;2023-06-19T12:06:28;14.20;;;7.32;;
79712;SDS011;69206;51.420;5.400;2023-06-19T12:08:55;11.27;;;6.40;;
79712;SDS011;69206;51.420;5.400;2023-06-19T12:11:20;10.85;;;6.60;;
79712;SDS011;69206;51.420;5.400;2023-06-19T12:13:46;11.82;;;7.90;;
79712;SDS011;69206;51.420;5.400;2023-06-19T12:16:13;11.95;;;8.07;;
79712;SDS011;69206;51.420;5.400;2023-06-19T12:18:38;16.58;;;7.65;;
79712;SDS011;69206;51.420;5.400;2023-06-19T12:21:05;10.98;;;7.82;;
79712;SDS011;69206;51.420;5.400;2023-06-19T12:23:31;16.63;;;7.68;;
79712;SDS011;69206;51.420;5.400;2023-06-19T12:25:58;10.85;;;6.78;;
79712;SDS011;69206;51.420;5.400;2023-06-19T12:28:23;12.88;;;7.38;;
79712;SDS011;69206;51.420;5.400;2023-06-19T12:30:50;10.52;;;6.65;;
79712;SDS011;69206;51.420;5.400;2023-06-19T12:33:21;15.88;;;7.75;;
79712;SDS011;69206;51.420;5.400;2023-06-19T12:35:46;9.63;;;6.65;;
79712;SDS011;69206;51.420;5.400;2023-06-19T12:38:12;11.10;;;6.13;;
79712;SDS011;69206;51.420;5.400;2023-06-19T12:40:38;8.40;;;6.25;;
79712;SDS011;69206;51.420;5.400;2023-06-19T12:43:04;10.82;;;6.28;;
79712;SDS011;69206;51.420;5.400;2023-06-19T12:45:29;10.85;;;6.43;;
79712;SDS011;69206;51.420;5.400;2023-06-19T12:47:55;10.70;;;6.70;;
79712;SDS011;69206;51.420;5.400;2023-06-19T12:50:20;13.38;;;6.43;;
79712;SDS011;69206;51.420;5.400;2023-06-19T12:52:46;9.80;;;6.68;;
79712;SDS011;69206;51.420;5.400;2023-06-19T12:55:12;8.32;;;5.78;;
79712;SDS011;69206;51.420;5.400;2023-06-19T12:57:37;11.27;;;6.43;;
79712;SDS011;69206;51.420;5.400;2023-06-19T13:00:04;13.00;;;6.45;;
79712;SDS011;69206;51.420;5.400;2023-06-19T13:02:33;10.27;;;5.70;;
79712;SDS011;69206;51.420;5.400;2023-06-19T13:04:58;13.18;;;5.90;;
79712;SDS011;69206;51.420;5.400;2023-06-19T13:07:23;11.00;;;6.32;;
79712;SDS011;69206;51.420;5.400;2023-06-19T13:09:51;9.50;;;6.25;;
79712;SDS011;69206;51.420;5.400;2023-06-19T13:12:16;10.57;;;6.68;;
79712;SDS011;69206;51.420;5.400;2023-06-19T13:14:41;11.68;;;6.20;;
79712;SDS011;69206;51.420;5.400;2023-06-19T13:17:07;9.80;;;5.80;;
79712;SDS011;69206;51.420;5.400;2023-06-19T13:19:32;12.73;;;6.10;;
79712;SDS011;69206;51.420;5.400;2023-06-19T13:21:58;8.57;;;5.78;;
79712;SDS011;69206;51.420;5.400;2023-06-19T13:24:24;9.13;;;5.65;;
79712;SDS011;69206;51.420;5.400;2023-06-19T13:26:52;9.52;;;5.65;;
79712;SDS011;69206;51.420;5.400;2023-06-19T13:29:19;12.93;;;5.90;;
79712;SDS011;69206;51.420;5.400;2023-06-19T13:31:45;18.80;;;6.30;;
79712;SDS011;69206;51.420;5.400;2023-06-19T13:34:10;10.63;;;6.15;;
79712;SDS011;69206;51.420;5.400;2023-06-19T13:36:35;14.13;;;6.30;;
79712;SDS011;69206;51.420;5.400;2023-06-19T13:39:01;11.80;;;6.40;;
79712;SDS011;69206;51.420;5.400;2023-06-19T13:41:27;9.77;;;6.35;;
79712;SDS011;69206;51.420;5.400;2023-06-19T13:43:56;12.40;;;5.95;;
79712;SDS011;69206;51.420;5.400;2023-06-19T13:46:22;13.75;;;6.30;;
79712;SDS011;69206;51.420;5.400;2023-06-19T13:48:47;9.00;;;5.65;;
79712;SDS011;69206;51.420;5.400;2023-06-19T13:51:16;12.18;;;5.57;;
79712;SDS011;69206;51.420;5.400;2023-06-19T13:53:43;7.75;;;5.25;;
79712;SDS011;69206;51.420;5.400;2023-06-19T13:56:09;8.35;;;5.63;;
79712;SDS011;69206;51.420;5.400;2023-06-19T13:58:35;12.82;;;5.63;;
79712;SDS011;69206;51.420;5.400;2023-06-19T14:01:00;11.15;;;5.70;;
79712;SDS011;69206;51.420;5.400;2023-06-19T14:03:25;11.18;;;5.70;;
79712;SDS011;69206;51.420;5.400;2023-06-19T14:05:51;10.50;;;5.38;;
79712;SDS011;69206;51.420;5.400;2023-06-19T14:08:16;9.85;;;5.70;;
79712;SDS011;69206;51.420;5.400;2023-06-19T14:10:42;12.70;;;6.70;;
79712;SDS011;69206;51.420;5.400;2023-06-19T14:13:08;10.68;;;5.20;;
79712;SDS011;69206;51.420;5.400;2023-06-19T14:15:34;9.40;;;5.00;;
79712;SDS011;69206;51.420;5.400;2023-06-19T14:17:59;15.40;;;6.50;;
79712;SDS011;69206;51.420;5.400;2023-06-19T14:20:24;8.20;;;6.07;;
79712;SDS011;69206;51.420;5.400;2023-06-19T14:22:50;14.70;;;6.00;;
79712;SDS011;69206;51.420;5.400;2023-06-19T14:25:15;8.95;;;6.35;;
79712;SDS011;69206;51.420;5.400;2023-06-19T14:27:41;10.82;;;7.25;;
79712;SDS011;69206;51.420;5.400;2023-06-19T14:30:06;9.80;;;6.72;;
79712;SDS011;69206;51.420;5.400;2023-06-19T14:32:34;10.43;;;6.13;;
79712;SDS011;69206;51.420;5.400;2023-06-19T14:35:01;9.30;;;5.45;;
79712;SDS011;69206;51.420;5.400;2023-06-19T14:37:27;11.05;;;5.85;;
79712;SDS011;69206;51.420;5.400;2023-06-19T14:39:53;8.93;;;5.22;;
79712;SDS011;69206;51.420;5.400;2023-06-19T14:42:19;14.23;;;5.22;;
79712;SDS011;69206;51.420;5.400;2023-06-19T14:44:45;7.03;;;4.95;;